x

Grays Reef - 40 Nm Southeast Of Savannah, Ga (41008) Wave Buoy

1:50pm - Sat 23rd Jul 2016 All times are EDT. -4 hours from GMT.

  • Sig Wave height 1.6ft
  • Swell Direction
  • Peak Period 9s
  • Average Period 6s
  • Wind
    9mph, 11mph gusts
  • Sea Temp 87°f
  • Air Temp 84°f
  • Sea Pressure 1017mb
  • Grays Reef - 40 Nm Southeast Of Savannah, Ga
  • Grays Reef - 40 Nm Southeast Of Savannah, Ga

More Historic Weather Station data

Upgrade to MSW Pro to gain access to the past 30 days of data for over 8000 Wavebouys and Weather Stations around the globe.

Join Pro

Comparision Forecast

View Surf forecast
   
Sat 07/23 1:50pm 1.6ft 9s 6s 9 11 mph 1017mb 87f 84f
12:50pm 2ft 9s 6s 7 9 mph 1017.3mb 87f 85f
11:50am 2ft 9s  -  9 11 mph 1017.5mb 87f 84f
10:50am 2ft 9s 5s 9 11 mph 1017.6mb 86f 83f
9:50am 2.5ft 8s 6s 9 11 mph 1017mb 86f 83f
8:50am 2ft 8s 5s 7 11 mph 1016.8mb 86f 83f
7:50am 2.5ft 9s 6s 9 11 mph 1016.7mb 86f 84f
6:50am 2.5ft 9s 5s 7 9 mph 1016.5mb 86f 83f
5:50am 2.5ft 8s 5s 9 11 mph 1016.2mb 86f 83f
4:50am 2.5ft 9s 5s 9 11 mph 1016.1mb 86f 84f
3:50am 2ft 8s 4s 13 16 mph 1016.3mb 86f 83f
2:50am 2.5ft 9s 5s 11 13 mph 1016.4mb 86f 84f
1:50am 2ft 10s 5s 11 13 mph 1016.9mb 86f 85f
12:50am 2ft 10s 5s 13 16 mph 1017.2mb 86f 85f
Fri 07/22 11:50pm 2.5ft 9s 5s 13 16 mph 1017.2mb 86f 85f
10:50pm 2.5ft 9s 5s 13 16 mph 1017.4mb 87f 85f
9:50pm 2.5ft 9s 6s 13 16 mph 1017.2mb 87f 85f
8:50pm 2ft 8s 6s 13 16 mph 1016.8mb 87f 85f
7:50pm 2.5ft 8s 7s 11 13 mph 1016.4mb 88f 85f
6:50pm 2.5ft 8s 7s 9 11 mph 1016.8mb 88f 85f
5:50pm 2ft 9s 7s 9 11 mph 1016.8mb 89f 85f
4:50pm 2.5ft 9s 7s 7 9 mph 1017.5mb 89f 85f
3:50pm 2.5ft 9s 8s 7 9 mph 1018mb 89f 85f
1:50pm 2.5ft 10s 7s  -  2 mph 1019.5mb 88f 85f
12:50pm 2.5ft 10s 8s 2 4 mph 1019.9mb 87f 85f
11:50am 2.5ft 10s 7s 4 7 mph 1019.9mb 86f 83f
10:50am 2.5ft 9s 7s 4
mph
1019.8mb 86f 82f
9:50am 2.5ft 9s 6s 7 9 mph 1019.7mb 86f 78f
8:50am 2.5ft 9s 6s 20 29 mph 1019.4mb 86f 79f
7:50am 2.5ft 8s 6s 2 4 mph 1019mb 87f 85f
6:50am 2.5ft 8s 7s 4 7 mph 1018.9mb 87f 84f
5:50am 2.5ft 9s 7s  -  2 mph 1018.8mb 87f 85f
4:50am 2.5ft 8s 7s 2 4 mph 1018.6mb 87f 84f
3:50am 2.5ft 9s 8s 7 9 mph 1018.9mb 87f 84f
2:50am 2.5ft 9s 8s 7 9 mph 1019.1mb 87f 84f
1:50am 2.5ft 10s 8s 4 7 mph 1019.6mb 87f 85f
12:50am 2.5ft 9s 8s 4 7 mph 1019.9mb 87f 85f
Thu 07/21 11:50pm 2.5ft 9s 8s 4 7 mph 1020.2mb 87f 85f
10:50pm 2.5ft 10s 7s 4 7 mph 1020.1mb 87f 85f
9:50pm 2.5ft 9s 7s 7 9 mph 1019.5mb 87f 85f
8:50pm 2.5ft 9s 7s 9 11 mph 1018.8mb 88f 85f
7:50pm 2.5ft 9s 7s 9 11 mph 1018.5mb 89f 85f
6:50pm 2.5ft 9s 7s 9 11 mph 1018.5mb 89f 86f
5:50pm 2.5ft 8s 7s 7 9 mph 1019.1mb 89f 86f
4:50pm 2.5ft 8s 7s 7 9 mph 1019.6mb 90f 85f
3:50pm 2.5ft 9s 7s 7 9 mph 1019.8mb 90f 85f
2:50pm 2ft 9s 7s 2 4 mph 1020.6mb 90f 85f
1:50pm 2ft 9s 7s 2 4 mph 1021.4mb 89f 85f
12:50pm 2ft 9s 7s 7 9 mph 1021.1mb 89f 85f
11:50am 2.5ft 9s 7s 2 4 mph 1021.6mb 88f 85f
10:50am 2ft 8s 6s  -  2 mph 1021.3mb 87f 85f
9:50am 2.5ft 8s 6s  -  2 mph 1021.1mb 86f 87f
8:50am 2ft 8s 6s 2
mph
1020.8mb 86f 85f
7:50am 2.5ft 8s 6s 2
mph
1020.7mb 86f 84f
6:50am 2ft 8s 6s 4 7 mph 1019.7mb 86f 84f
5:50am 2.5ft 8s 6s 4
mph
1019.4mb 86f 84f
4:50am 2ft 8s 6s 2 4 mph 1019.2mb 86f 85f
3:50am 2ft 9s 6s 4 9 mph 1019.5mb 86f 85f
2:50am 2ft 8s 6s 4 7 mph 1019.6mb 86f 85f
1:50am 2ft 8s 6s 4
mph
1020.2mb 86f 85f
12:50am 1.6ft 8s 6s 7 9 mph 1020.2mb 86f 85f
Wed 07/20 11:50pm 2ft 8s 6s 9 11 mph 1020.3mb 87f 85f
10:50pm 2ft 9s 6s 9 11 mph 1020.2mb 87f 85f
9:50pm 2ft 8s 6s 9
mph
1020mb 87f 85f
8:50pm 2ft 8s 6s 9 11 mph 1019.1mb 87f 85f
7:50pm 2ft 7s 5s 9 11 mph 1018.9mb 88f 85f
6:50pm 2ft 8s 5s 11 13 mph 1019mb 88f 85f
5:50pm 2ft 7s 5s 9
mph
1019.6mb 89f 85f
4:50pm 1.6ft 8s 5s 9
mph
1019.6mb 89f 85f
3:50pm 1.6ft 7s 6s 7 11 mph 1020.2mb 89f 85f
2:50pm 1.6ft 8s 6s 4 7 mph 1021mb 89f 86f
1:50pm 1.6ft 8s 6s 4
mph
1021.5mb 88f 85f
12:50pm 1.6ft 8s 5s 4 7 mph 1021.7mb 87f 85f
11:50am 1.6ft 8s 5s 7 9 mph 1021.9mb 87f 85f
10:50am 2ft 8s 5s 9
mph
1021.5mb 86f 84f
9:50am 1.6ft 6s 5s 7 9 mph 1021.8mb 86f 84f
8:50am 1.6ft 7s 5s 9 11 mph 1021.6mb 86f 83f
7:50am 2ft 7s 5s 7 9 mph 1020.9mb 86f 85f
6:50am 1.6ft 6s 5s 9
mph
1020.7mb 86f 84f
5:50am 1.6ft 7s 5s 7 9 mph 1020.2mb 86f 84f
4:50am 1.6ft 8s 5s 9
mph
1020.1mb 86f 84f
3:50am 1.6ft 8s 4s 9 11 mph 1020mb 86f 84f
2:50am 1.6ft 7s 4s 9 11 mph 1020.4mb 86f 84f
1:50am 1.6ft 8s 4s 7 9 mph 1021.2mb 86f 84f
12:50am 1.6ft 8s 4s 9 11 mph 1021.1mb 86f 85f
Tue 07/19 11:50pm 1.6ft 8s 4s 11 16 mph 1020.6mb 86f 85f
10:50pm 1.6ft 8s 4s 13 16 mph 1020.9mb 86f 85f
9:50pm 1.6ft 8s 4s 11 13 mph 1020.9mb 87f 85f
8:50pm 1.6ft 7s 4s 11 13 mph 1020.8mb 87f 85f
7:50pm 1.6ft 7s 4s 13 16 mph 1020.3mb 87f 85f